createdAt,value
2023-05-10T00:01:53.106Z,99437.81
2023-05-10T00:04:20.809Z,99432.75
2023-05-10T00:06:48.329Z,99427.56
2023-05-10T00:09:15.898Z,99428.00
2023-05-10T00:11:43.372Z,99435.47
2023-05-10T00:14:12.220Z,99422.00
2023-05-10T00:16:40.136Z,99422.78
2023-05-10T00:19:07.685Z,99428.16
2023-05-10T00:21:35.458Z,99422.00
2023-05-10T00:24:02.935Z,99412.88
2023-05-10T00:26:30.464Z,99417.88
2023-05-10T00:28:59.513Z,99411.22
2023-05-10T00:31:28.389Z,99410.13
2023-05-10T00:33:56.494Z,99403.56
2023-05-10T00:36:23.998Z,99402.34
2023-05-10T00:38:51.473Z,99403.69
2023-05-10T00:41:18.988Z,99401.72
2023-05-10T00:43:46.501Z,99401.28
2023-05-10T00:46:14.327Z,99400.03
2023-05-10T00:48:43.334Z,99400.75
2023-05-10T00:51:10.830Z,99401.50
2023-05-10T00:53:38.856Z,99401.69
2023-05-10T00:56:06.527Z,99403.38
2023-05-10T00:58:34.161Z,99392.97
2023-05-10T01:01:02.591Z,99394.44
2023-05-10T01:03:30.318Z,99395.44
2023-05-10T01:05:59.313Z,99388.97
2023-05-10T01:08:27.038Z,99383.88
2023-05-10T01:10:54.566Z,99381.25
2023-05-10T01:13:33.395Z,99379.19
2023-05-10T01:16:02.995Z,99390.06
2023-05-10T01:18:32.000Z,99391.25
2023-05-10T01:21:08.569Z,99396.09
2023-05-10T01:23:46.270Z,99385.47
2023-05-10T01:26:41.789Z,99394.00
2023-05-10T01:29:40.755Z,99389.84
2023-05-10T01:32:24.203Z,99390.31
2023-05-10T01:34:57.399Z,99389.03
2023-05-10T01:37:33.248Z,99381.97
2023-05-10T01:40:06.254Z,99383.88
2023-05-10T01:42:39.015Z,99386.50
2023-05-10T01:45:18.211Z,99375.97
2023-05-10T01:47:49.150Z,99385.16
2023-05-10T01:50:19.939Z,99382.84
2023-05-10T01:52:53.534Z,99382.16
2023-05-10T01:55:23.373Z,99378.22
2023-05-10T01:57:54.540Z,99383.59
2023-05-10T02:00:22.364Z,99375.19
2023-05-10T02:02:51.727Z,99374.16
2023-05-10T02:05:19.923Z,99374.44
2023-05-10T02:07:47.627Z,99381.41
2023-05-10T02:10:15.895Z,99375.28
2023-05-10T02:12:45.583Z,99379.59
2023-05-10T02:15:15.048Z,99378.84
2023-05-10T02:17:44.284Z,99376.59
2023-05-10T02:20:13.735Z,99374.09
2023-05-10T02:22:41.924Z,99374.53
2023-05-10T02:25:10.724Z,99372.00
2023-05-10T02:27:38.823Z,99373.97
2023-05-10T02:30:08.732Z,99367.13
2023-05-10T02:32:36.864Z,99369.59
2023-05-10T02:35:05.816Z,99370.72
2023-05-10T02:37:35.173Z,99371.22
2023-05-10T02:40:04.593Z,99366.34
2023-05-10T02:42:34.943Z,99369.03
2023-05-10T02:45:03.832Z,99367.63
2023-05-10T02:47:31.351Z,99359.78
2023-05-10T02:49:58.879Z,99358.16
2023-05-10T02:52:28.346Z,99353.59
2023-05-10T02:55:01.307Z,99357.63
2023-05-10T02:57:35.948Z,99359.06
2023-05-10T03:00:04.482Z,99353.84
2023-05-10T03:02:32.153Z,99352.09
2023-05-10T03:04:59.790Z,99356.28
2023-05-10T03:07:27.439Z,99347.19
2023-05-10T03:09:54.990Z,99357.72
2023-05-10T03:12:31.676Z,99359.84
2023-05-10T03:15:03.004Z,99355.91
2023-05-10T03:17:32.560Z,99355.41
2023-05-10T03:20:03.882Z,99365.00
2023-05-10T03:22:33.784Z,99363.63
2023-05-10T03:25:02.532Z,99365.31
2023-05-10T03:27:32.578Z,99366.47
2023-05-10T03:30:00.055Z,99367.22
2023-05-10T03:32:28.115Z,99365.09
2023-05-10T03:34:55.646Z,99361.38
2023-05-10T03:37:23.141Z,99366.63
2023-05-10T03:39:50.705Z,99359.31
2023-05-10T03:42:18.840Z,99361.13
2023-05-10T03:44:47.659Z,99363.53
2023-05-10T03:47:15.217Z,99360.44
2023-05-10T03:49:42.727Z,99362.66
2023-05-10T03:52:10.234Z,99363.09
2023-05-10T03:54:37.730Z,99362.06
2023-05-10T03:57:05.234Z,99356.88
2023-05-10T03:59:32.875Z,99363.03
2023-05-10T04:02:01.824Z,99357.88
2023-05-10T04:04:29.355Z,99358.13
2023-05-10T04:06:56.861Z,99354.16
2023-05-10T04:09:24.390Z,99351.41
2023-05-10T04:11:52.129Z,99355.00
2023-05-10T04:14:19.654Z,99351.53
2023-05-10T04:16:47.272Z,99347.69
2023-05-10T04:19:16.183Z,99348.91
2023-05-10T04:21:43.657Z,99349.75
2023-05-10T04:24:11.465Z,99343.81
2023-05-10T04:26:39.787Z,99338.19
2023-05-10T04:29:07.341Z,99345.56
2023-05-10T04:31:35.248Z,99351.56
2023-05-10T04:34:02.753Z,99349.03
2023-05-10T04:36:33.392Z,99349.31
2023-05-10T04:39:00.904Z,99346.56
2023-05-10T04:41:28.391Z,99343.97
2023-05-10T04:43:55.901Z,99344.34
2023-05-10T04:46:23.633Z,99350.13
2023-05-10T04:48:51.160Z,99335.63
2023-05-10T04:51:18.643Z,99339.16
2023-05-10T04:54:01.714Z,99334.75
2023-05-10T04:56:32.494Z,99341.53
2023-05-10T04:58:59.983Z,99348.59
2023-05-10T05:01:27.545Z,99354.25
2023-05-10T05:03:55.214Z,99357.56
2023-05-10T05:06:22.865Z,99351.19
2023-05-10T05:08:51.655Z,99350.09
2023-05-10T05:11:19.407Z,99358.38
2023-05-10T05:13:47.093Z,99365.19
2023-05-10T05:16:14.616Z,99362.69
2023-05-10T05:18:42.115Z,99366.34
2023-05-10T05:21:16.094Z,99361.44
2023-05-10T05:23:43.678Z,99364.13
2023-05-10T05:26:12.576Z,99368.81
2023-05-10T05:28:40.183Z,99366.88
2023-05-10T05:31:08.511Z,99365.53
2023-05-10T05:33:36.465Z,99368.97
2023-05-10T05:36:04.328Z,99372.28
2023-05-10T05:38:31.867Z,99376.16
2023-05-10T05:40:59.478Z,99377.78
2023-05-10T05:43:28.307Z,99374.31
2023-05-10T05:45:55.800Z,99378.84
2023-05-10T05:48:23.372Z,99376.75
2023-05-10T05:50:51.073Z,99380.19
2023-05-10T05:53:18.594Z,99385.16
2023-05-10T05:55:53.328Z,99380.41
2023-05-10T05:58:20.807Z,99383.97
2023-05-10T06:00:49.785Z,99378.91
2023-05-10T06:03:17.455Z,99386.81
2023-05-10T06:05:45.044Z,99382.41
2023-05-10T06:08:12.772Z,99371.97
2023-05-10T06:10:40.325Z,99377.13
2023-05-10T06:13:07.883Z,99378.34
2023-05-10T06:15:35.565Z,99376.44
2023-05-10T06:18:04.479Z,99378.81
2023-05-10T06:20:32.880Z,99379.41
2023-05-10T06:23:00.453Z,99379.88
2023-05-10T06:25:27.977Z,99383.88
2023-05-10T06:27:58.278Z,99384.66
2023-05-10T06:30:28.501Z,99378.28
2023-05-10T06:32:56.397Z,99385.84
2023-05-10T06:35:25.274Z,99392.97
2023-05-10T06:37:53.054Z,99390.63
2023-05-10T06:40:20.966Z,99387.84
2023-05-10T06:42:48.687Z,99381.41
2023-05-10T06:45:16.899Z,99392.19
2023-05-10T06:47:44.899Z,99389.25
2023-05-10T06:50:13.224Z,99393.22
2023-05-10T06:52:42.060Z,99399.41
2023-05-10T06:55:10.544Z,99408.66
2023-05-10T06:57:38.227Z,99399.63
2023-05-10T07:00:07.062Z,99396.75
2023-05-10T07:02:34.649Z,99392.50
2023-05-10T07:05:03.385Z,99407.91
2023-05-10T07:07:31.272Z,99399.94
2023-05-10T07:10:00.258Z,99399.66
2023-05-10T07:12:27.787Z,99397.94
2023-05-10T07:14:55.329Z,99404.72
2023-05-10T07:17:22.981Z,99404.94
2023-05-10T07:19:50.826Z,99409.97
2023-05-10T07:22:18.743Z,99403.09
2023-05-10T07:24:46.490Z,99396.38
2023-05-10T07:27:15.379Z,99401.28
2023-05-10T07:29:43.138Z,99406.09
2023-05-10T07:32:10.688Z,99417.25
2023-05-10T07:34:38.204Z,99424.59
2023-05-10T07:37:07.132Z,99422.66
2023-05-10T07:39:34.740Z,99424.22
2023-05-10T07:42:02.347Z,99422.19
2023-05-10T07:44:31.144Z,99433.50
2023-05-10T07:46:58.632Z,99432.19
2023-05-10T07:49:26.219Z,99433.00
2023-05-10T07:51:53.734Z,99438.13
2023-05-10T07:54:21.532Z,99442.81
2023-05-10T07:56:49.246Z,99438.09
2023-05-10T07:59:17.978Z,99436.59
2023-05-10T08:01:47.194Z,99453.66
2023-05-10T08:04:14.748Z,99443.34
2023-05-10T08:06:42.609Z,99447.31
2023-05-10T08:09:10.458Z,99449.22
2023-05-10T08:11:38.008Z,99449.13
2023-05-10T08:14:05.748Z,99452.91
2023-05-10T08:16:33.684Z,99455.44
2023-05-10T08:19:02.775Z,99467.84
2023-05-10T08:21:32.307Z,99471.41
2023-05-10T08:24:00.013Z,99470.78
2023-05-10T08:26:27.518Z,99468.41
2023-05-10T08:28:55.011Z,99482.00
2023-05-10T08:31:22.573Z,99477.84
2023-05-10T08:33:50.142Z,99478.50
2023-05-10T08:36:22.404Z,99484.44
2023-05-10T08:38:52.480Z,99487.19
2023-05-10T08:41:22.030Z,99492.38
2023-05-10T08:43:49.600Z,99496.28
2023-05-10T08:46:18.708Z,99499.53
2023-05-10T08:48:46.561Z,99500.00
2023-05-10T08:51:17.423Z,99503.09
2023-05-10T08:53:46.544Z,99513.13
2023-05-10T08:56:14.052Z,99506.88
2023-05-10T08:58:41.629Z,99511.06
2023-05-10T09:01:09.725Z,99512.88
2023-05-10T09:03:37.356Z,99520.81
2023-05-10T09:06:06.030Z,99521.63
2023-05-10T09:08:33.568Z,99532.22
2023-05-10T09:11:03.843Z,99529.25
2023-05-10T09:13:31.566Z,99526.81
2023-05-10T09:16:04.436Z,99538.00
2023-05-10T09:18:41.412Z,99538.09
2023-05-10T09:21:09.164Z,99540.34
2023-05-10T09:23:36.649Z,99543.53
2023-05-10T09:26:06.174Z,99546.09
2023-05-10T09:28:34.396Z,99544.13
2023-05-10T09:31:01.992Z,99542.75
2023-05-10T09:33:29.724Z,99550.38
2023-05-10T09:35:57.210Z,99551.13
2023-05-10T09:38:24.715Z,99551.53
2023-05-10T09:40:56.317Z,99552.34
2023-05-10T09:43:25.297Z,99552.59
2023-05-10T09:45:54.401Z,99556.63
2023-05-10T09:48:26.021Z,99565.38
2023-05-10T09:50:58.670Z,99558.88
2023-05-10T09:53:26.191Z,99564.66
2023-05-10T09:55:53.686Z,99566.59
2023-05-10T09:58:21.201Z,99574.44
2023-05-10T10:00:52.489Z,99574.59
2023-05-10T10:03:21.513Z,99577.69
2023-05-10T10:05:50.010Z,99576.06
2023-05-10T10:08:18.567Z,99580.31
2023-05-10T10:10:47.120Z,99576.16
2023-05-10T10:13:15.256Z,99580.72
2023-05-10T10:15:44.101Z,99588.81
2023-05-10T10:18:16.175Z,99587.94
2023-05-10T10:20:44.144Z,99596.50
2023-05-10T10:23:11.718Z,99591.09
2023-05-10T10:25:40.329Z,99589.19
2023-05-10T10:28:29.387Z,99597.25
2023-05-10T10:30:57.984Z,99602.84
2023-05-10T10:33:41.742Z,99603.41
2023-05-10T10:36:09.552Z,99606.06
2023-05-10T10:39:00.309Z,99602.56
2023-05-10T10:41:35.725Z,99609.31
2023-05-10T10:44:25.006Z,99608.88
2023-05-10T10:47:09.678Z,99609.44
2023-05-10T10:49:46.248Z,99607.97
2023-05-10T10:52:22.898Z,99611.34
2023-05-10T10:54:54.334Z,99607.09
2023-05-10T10:57:23.853Z,99612.59
2023-05-10T10:59:51.913Z,99627.78
2023-05-10T11:02:36.674Z,99620.72
2023-05-10T11:05:46.582Z,99626.31
2023-05-10T11:08:21.119Z,99625.06
2023-05-10T11:11:14.047Z,99622.84
2023-05-10T11:13:44.154Z,99624.63
2023-05-10T11:16:14.432Z,99622.84
2023-05-10T11:18:54.321Z,99628.09
2023-05-10T11:21:22.512Z,99631.16
2023-05-10T11:23:53.269Z,99625.56
2023-05-10T11:26:24.332Z,99636.91
2023-05-10T11:28:52.725Z,99626.13
2023-05-10T11:31:21.934Z,99633.03
2023-05-10T11:33:53.431Z,99639.28
2023-05-10T11:36:25.478Z,99635.78
2023-05-10T11:38:55.682Z,99639.03
2023-05-10T11:41:25.313Z,99650.16
2023-05-10T11:43:55.711Z,99642.72
2023-05-10T11:46:27.163Z,99650.09
2023-05-10T11:49:05.308Z,99649.16
2023-05-10T11:51:36.659Z,99654.81
2023-05-10T11:54:08.124Z,99654.81
2023-05-10T11:56:35.632Z,99659.56
2023-05-10T11:59:03.590Z,99664.91
2023-05-10T12:01:31.209Z,99662.09
2023-05-10T12:04:01.106Z,99664.97
2023-05-10T12:06:30.404Z,99668.06
2023-05-10T12:08:57.928Z,99676.06
2023-05-10T12:11:29.564Z,99674.22
2023-05-10T12:13:57.978Z,99676.06
2023-05-10T12:16:27.261Z,99682.75
2023-05-10T12:18:58.093Z,99681.00
2023-05-10T12:21:26.446Z,99683.41
2023-05-10T12:23:55.268Z,99683.63
2023-05-10T12:26:23.919Z,99687.13
2023-05-10T12:28:52.708Z,99691.91
2023-05-10T12:31:20.375Z,99693.16
2023-05-10T12:33:50.190Z,99697.28
2023-05-10T12:36:18.911Z,99698.56
2023-05-10T12:38:48.901Z,99694.38
2023-05-10T12:41:18.951Z,99704.16
2023-05-10T12:43:47.410Z,99708.94
2023-05-10T12:46:18.639Z,99712.50
2023-05-10T12:48:47.237Z,99711.41
2023-05-10T12:51:17.998Z,99716.03
2023-05-10T12:53:49.258Z,99713.38
2023-05-10T12:56:17.127Z,99706.16
2023-05-10T12:58:48.888Z,99717.03
2023-05-10T13:01:17.970Z,99715.88
2023-05-10T13:03:45.518Z,99708.63
2023-05-10T13:06:14.376Z,99708.38
2023-05-10T13:08:41.920Z,99709.16
2023-05-10T13:11:09.439Z,99709.75
2023-05-10T13:13:36.947Z,99718.19
2023-05-10T13:16:04.936Z,99708.13
2023-05-10T13:18:33.956Z,99713.47
2023-05-10T13:21:01.509Z,99713.34
2023-05-10T13:23:29.007Z,99717.28
2023-05-10T13:25:56.568Z,99713.53
2023-05-10T13:28:24.074Z,99713.28
2023-05-10T13:30:51.582Z,99714.50
2023-05-10T13:33:19.098Z,99716.59
2023-05-10T13:35:47.975Z,99711.72
2023-05-10T13:38:15.544Z,99710.13
2023-05-10T13:40:43.095Z,99703.28
2023-05-10T13:43:10.600Z,99709.69
2023-05-10T13:45:38.102Z,99710.53
2023-05-10T13:48:06.239Z,99713.84
2023-05-10T13:50:33.774Z,99709.19
2023-05-10T13:53:02.619Z,99712.22
2023-05-10T13:55:30.149Z,99722.81
2023-05-10T13:57:57.641Z,99719.13
2023-05-10T14:00:25.340Z,99714.88
2023-05-10T14:02:52.888Z,99713.47
2023-05-10T14:05:25.461Z,99709.63
2023-05-10T14:07:54.635Z,99719.09
2023-05-10T14:10:23.448Z,99719.56
2023-05-10T14:12:51.812Z,99715.72
2023-05-10T14:15:19.420Z,99716.16
2023-05-10T14:17:47.080Z,99709.88
2023-05-10T14:20:14.633Z,99706.34
2023-05-10T14:22:42.211Z,99706.97
2023-05-10T14:25:10.297Z,99705.31
2023-05-10T14:27:39.110Z,99708.69
2023-05-10T14:30:07.951Z,99701.72
2023-05-10T14:32:37.506Z,99711.75
2023-05-10T14:35:07.034Z,99700.25
2023-05-10T14:37:34.624Z,99698.09
2023-05-10T14:40:02.181Z,99703.19
2023-05-10T14:42:29.766Z,99704.59
2023-05-10T14:44:58.829Z,99698.81
2023-05-10T14:47:26.412Z,99708.47
2023-05-10T14:49:53.906Z,99712.66
2023-05-10T14:52:21.415Z,99708.66
2023-05-10T14:54:48.978Z,99695.66
2023-05-10T14:57:16.473Z,99699.84
2023-05-10T14:59:43.980Z,99705.22
2023-05-10T15:02:14.478Z,99701.06
2023-05-10T15:04:42.396Z,99700.72
2023-05-10T15:07:10.255Z,99697.75
2023-05-10T15:09:37.733Z,99695.91
2023-05-10T15:12:05.350Z,99695.41
2023-05-10T15:14:33.879Z,99696.34
2023-05-10T15:17:01.539Z,99702.09
2023-05-10T15:19:30.721Z,99700.72
2023-05-10T15:21:58.249Z,99699.69
2023-05-10T15:24:25.755Z,99703.38
2023-05-10T15:26:53.287Z,99699.41
2023-05-10T15:29:21.706Z,99705.03
2023-05-10T15:31:49.672Z,99706.94
2023-05-10T15:34:17.596Z,99706.06
2023-05-10T15:36:46.733Z,99709.28
2023-05-10T15:39:14.226Z,99707.28
2023-05-10T15:41:41.716Z,99705.09
2023-05-10T15:44:09.212Z,99705.34
2023-05-10T15:46:38.738Z,99708.38
2023-05-10T15:49:06.785Z,99712.91
2023-05-10T15:51:36.521Z,99707.47
2023-05-10T15:54:08.203Z,99719.09
2023-05-10T15:56:36.126Z,99712.53
2023-05-10T15:59:03.744Z,99714.44
2023-05-10T16:01:32.439Z,99721.59
2023-05-10T16:04:00.195Z,99718.13
2023-05-10T16:06:27.823Z,99723.84
2023-05-10T16:08:55.440Z,99719.88
2023-05-10T16:11:24.293Z,99719.38
2023-05-10T16:13:52.978Z,99716.06
2023-05-10T16:16:20.583Z,99718.44
2023-05-10T16:18:48.357Z,99717.66
2023-05-10T16:21:15.882Z,99719.78
2023-05-10T16:23:46.333Z,99724.69
2023-05-10T16:26:13.857Z,99724.53
2023-05-10T16:28:42.727Z,99729.06
2023-05-10T16:31:10.311Z,99722.16
2023-05-10T16:33:38.022Z,99728.94
2023-05-10T16:36:06.574Z,99735.16
2023-05-10T16:38:34.121Z,99735.94
2023-05-10T16:41:03.532Z,99738.16
2023-05-10T16:43:31.620Z,99736.44
2023-05-10T16:46:00.903Z,99746.16
2023-05-10T16:48:28.436Z,99746.13
2023-05-10T16:50:55.931Z,99748.00
2023-05-10T16:53:23.407Z,99759.06
2023-05-10T16:55:51.057Z,99761.53
2023-05-10T16:58:18.570Z,99760.75
2023-05-10T17:00:46.674Z,99759.81
2023-05-10T17:03:15.495Z,99766.88
2023-05-10T17:05:43.216Z,99767.28
2023-05-10T17:08:10.760Z,99763.63
2023-05-10T17:10:40.601Z,99765.25
2023-05-10T17:13:10.062Z,99766.25
2023-05-10T17:15:38.217Z,99766.84
2023-05-10T17:18:06.860Z,99774.63
2023-05-10T17:20:35.877Z,99767.84
2023-05-10T17:23:03.497Z,99771.53
2023-05-10T17:25:31.020Z,99774.06
2023-05-10T17:27:58.524Z,99778.72
2023-05-10T17:30:28.245Z,99778.97
2023-05-10T17:32:56.291Z,99780.00
2023-05-10T17:35:23.964Z,99788.22
2023-05-10T17:37:52.854Z,99790.28
2023-05-10T17:40:20.671Z,99795.56
2023-05-10T17:42:48.211Z,99777.06
2023-05-10T17:45:16.702Z,99788.25
2023-05-10T17:47:44.472Z,99782.25
2023-05-10T17:50:12.139Z,99797.63
2023-05-10T17:52:39.622Z,99792.44
2023-05-10T17:55:09.617Z,99797.53
2023-05-10T17:57:38.856Z,99799.06
2023-05-10T18:00:08.751Z,99800.19
2023-05-10T18:02:36.528Z,99800.41
2023-05-10T18:05:04.207Z,99797.81
2023-05-10T18:07:31.893Z,99797.91
2023-05-10T18:10:01.050Z,99796.41
2023-05-10T18:12:30.054Z,99803.00
2023-05-10T18:14:57.700Z,99801.53
2023-05-10T18:17:25.232Z,99802.38
2023-05-10T18:19:53.414Z,99805.84
2023-05-10T18:22:21.050Z,99810.53
2023-05-10T18:24:48.563Z,99810.06
2023-05-10T18:27:16.165Z,99809.16
2023-05-10T18:29:44.982Z,99810.88
2023-05-10T18:32:12.460Z,99815.19
2023-05-10T18:34:39.951Z,99819.84
2023-05-10T18:37:08.086Z,99806.19
2023-05-10T18:39:35.858Z,99819.94
2023-05-10T18:42:03.852Z,99822.25
2023-05-10T18:44:31.423Z,99831.31
2023-05-10T18:47:00.262Z,99827.53
2023-05-10T18:49:29.332Z,99836.59
2023-05-10T18:51:56.893Z,99831.34
2023-05-10T18:54:24.364Z,99835.47
2023-05-10T18:56:51.851Z,99835.53
2023-05-10T18:59:19.337Z,99834.72
2023-05-10T19:01:47.495Z,99842.41
2023-05-10T19:04:17.760Z,99845.97
2023-05-10T19:06:45.285Z,99852.13
2023-05-10T19:09:12.786Z,99859.50
2023-05-10T19:11:40.328Z,99856.50
2023-05-10T19:14:07.808Z,99855.25
2023-05-10T19:16:35.598Z,99853.63
2023-05-10T19:19:03.151Z,99858.16
2023-05-10T19:21:32.939Z,99852.66
2023-05-10T19:24:01.413Z,99857.91
2023-05-10T19:26:29.142Z,99855.06
2023-05-10T19:28:57.597Z,99859.78
2023-05-10T19:31:25.161Z,99866.34
2023-05-10T19:33:52.984Z,99874.44
2023-05-10T19:36:20.702Z,99883.25
2023-05-10T19:38:49.889Z,99878.63
2023-05-10T19:41:17.438Z,99871.41
2023-05-10T19:43:44.945Z,99869.25
2023-05-10T19:46:15.643Z,99873.50
2023-05-10T19:48:45.489Z,99874.31
2023-05-10T19:51:14.007Z,99879.13
2023-05-10T19:53:44.691Z,99872.63
2023-05-10T19:56:14.283Z,99874.06
2023-05-10T19:58:43.328Z,99879.88
2023-05-10T20:01:10.978Z,99878.66
2023-05-10T20:03:38.855Z,99876.84
2023-05-10T20:06:06.463Z,99874.78
2023-05-10T20:08:33.973Z,99877.38
2023-05-10T20:11:03.594Z,99879.25
2023-05-10T20:13:33.374Z,99877.22
2023-05-10T20:16:02.240Z,99887.16
2023-05-10T20:18:29.763Z,99887.50
2023-05-10T20:20:59.952Z,99888.94
2023-05-10T20:23:27.796Z,99890.03
2023-05-10T20:25:55.684Z,99888.25
2023-05-10T20:28:24.016Z,99884.78
2023-05-10T20:30:54.243Z,99883.91
2023-05-10T20:33:22.083Z,99879.75
2023-05-10T20:35:50.099Z,99878.44
2023-05-10T20:38:18.057Z,99886.06
2023-05-10T20:40:46.567Z,99884.53
2023-05-10T20:43:14.146Z,99888.00
2023-05-10T20:45:41.641Z,99890.03
2023-05-10T20:48:10.543Z,99891.97
2023-05-10T20:50:38.054Z,99880.53
2023-05-10T20:53:05.664Z,99888.78
2023-05-10T20:55:33.364Z,99884.06
2023-05-10T20:58:03.446Z,99882.31
2023-05-10T21:00:32.358Z,99890.81
2023-05-10T21:02:59.942Z,99891.28
2023-05-10T21:05:28.874Z,99883.91
2023-05-10T21:07:56.399Z,99889.66
2023-05-10T21:10:25.050Z,99889.66
2023-05-10T21:12:52.938Z,99887.56
2023-05-10T21:15:22.476Z,99893.03
2023-05-10T21:17:49.994Z,99891.66
2023-05-10T21:20:17.771Z,99894.81
2023-05-10T21:22:46.782Z,99895.63
2023-05-10T21:25:14.304Z,99897.09
2023-05-10T21:27:41.941Z,99897.03
2023-05-10T21:30:10.728Z,99890.13
2023-05-10T21:32:38.262Z,99894.28
2023-05-10T21:35:06.583Z,99894.63
2023-05-10T21:37:34.179Z,99891.28
2023-05-10T21:40:04.491Z,99887.81
2023-05-10T21:42:32.396Z,99899.16
2023-05-10T21:44:59.883Z,99892.44
2023-05-10T21:47:27.528Z,99894.25
2023-05-10T21:49:55.112Z,99889.75
2023-05-10T21:52:22.691Z,99889.50
2023-05-10T21:54:50.179Z,99891.50
2023-05-10T21:57:19.643Z,99893.47
2023-05-10T21:59:47.192Z,99899.03
2023-05-10T22:02:14.734Z,99901.34
2023-05-10T22:04:42.295Z,99901.19
2023-05-10T22:07:09.806Z,99898.50
2023-05-10T22:09:37.317Z,99905.09
2023-05-10T22:12:05.242Z,99903.28
2023-05-10T22:14:35.313Z,99904.44
2023-05-10T22:17:02.953Z,99900.41
2023-05-10T22:19:30.584Z,99895.78
2023-05-10T22:21:58.055Z,99905.31
2023-05-10T22:24:25.648Z,99906.41
2023-05-10T22:26:54.941Z,99902.97
2023-05-10T22:29:22.536Z,99902.78
2023-05-10T22:31:51.347Z,99906.47
2023-05-10T22:34:18.842Z,99896.94
2023-05-10T22:36:46.665Z,99909.13
2023-05-10T22:39:14.152Z,99908.13
2023-05-10T22:41:41.697Z,99906.72
2023-05-10T22:44:09.747Z,99914.91
2023-05-10T22:46:37.443Z,99910.44
2023-05-10T22:49:06.296Z,99911.19
2023-05-10T22:51:33.829Z,99918.59
2023-05-10T22:54:01.334Z,99918.16
2023-05-10T22:56:28.867Z,99918.53
2023-05-10T22:58:57.729Z,99923.03
2023-05-10T23:01:25.361Z,99919.78
2023-05-10T23:03:52.868Z,99918.72
2023-05-10T23:06:21.699Z,99912.59
2023-05-10T23:08:49.271Z,99927.44
2023-05-10T23:11:17.107Z,99926.50
2023-05-10T23:13:44.738Z,99927.13
2023-05-10T23:16:12.474Z,99923.84
2023-05-10T23:18:40.594Z,99932.81
2023-05-10T23:21:08.137Z,99926.19
2023-05-10T23:23:37.359Z,99926.44
2023-05-10T23:26:05.218Z,99931.88
2023-05-10T23:28:32.774Z,99926.66
2023-05-10T23:31:00.636Z,99926.72
2023-05-10T23:33:28.506Z,99935.53
2023-05-10T23:35:56.108Z,99933.81
2023-05-10T23:38:23.626Z,99931.25
2023-05-10T23:40:52.485Z,99930.78
2023-05-10T23:43:20.828Z,99937.06
2023-05-10T23:45:54.932Z,99929.00
2023-05-10T23:48:22.572Z,99929.47
2023-05-10T23:50:50.200Z,99925.53
2023-05-10T23:53:17.703Z,99934.75
2023-05-10T23:55:45.468Z,99923.97
2023-05-10T23:58:14.313Z,99932.16
